createdAt,value
2023-05-18T00:00:08.607Z,3.26
2023-05-18T00:00:19.136Z,3.29
2023-05-18T00:00:29.619Z,3.26
2023-05-18T00:00:40.126Z,3.24
2023-05-18T00:00:50.635Z,3.28
2023-05-18T00:01:01.133Z,3.28
2023-05-18T00:01:11.643Z,3.26
2023-05-18T00:01:22.159Z,3.26
2023-05-18T00:01:32.662Z,3.28
2023-05-18T00:01:43.160Z,3.28
2023-05-18T00:01:53.659Z,3.26
2023-05-18T00:02:04.190Z,3.24
2023-05-18T00:02:14.697Z,3.26
2023-05-18T00:02:25.330Z,3.26
2023-05-18T00:02:35.785Z,3.24
2023-05-18T00:02:46.264Z,3.26
2023-05-18T00:02:56.836Z,3.26
2023-05-18T00:03:07.364Z,3.24
2023-05-18T00:03:17.793Z,3.26
2023-05-18T00:03:28.457Z,3.26
2023-05-18T00:03:38.860Z,3.24
2023-05-18T00:03:49.324Z,3.24
2023-05-18T00:03:59.785Z,3.28
2023-05-18T00:04:10.280Z,3.28
2023-05-18T00:04:20.771Z,3.28
2023-05-18T00:04:31.290Z,3.28
2023-05-18T00:04:41.836Z,3.24
2023-05-18T00:04:52.330Z,3.26
2023-05-18T00:05:02.767Z,3.28
2023-05-18T00:05:13.288Z,3.26
2023-05-18T00:05:23.792Z,3.28
2023-05-18T00:05:34.675Z,3.26
2023-05-18T00:05:44.786Z,3.28
2023-05-18T00:05:55.300Z,3.28
2023-05-18T00:06:05.800Z,3.26
2023-05-18T00:06:16.312Z,3.26
2023-05-18T00:06:26.808Z,3.28
2023-05-18T00:06:37.313Z,3.26
2023-05-18T00:06:47.814Z,3.26
2023-05-18T00:06:58.326Z,3.28
2023-05-18T00:07:08.834Z,3.28
2023-05-18T00:07:19.344Z,3.26
2023-05-18T00:07:29.845Z,3.26
2023-05-18T00:07:40.364Z,3.24
2023-05-18T00:07:50.857Z,3.21
2023-05-18T00:08:01.367Z,3.21
2023-05-18T00:08:11.865Z,3.21
2023-05-18T00:08:22.374Z,3.20
2023-05-18T00:08:32.903Z,3.21
2023-05-18T00:08:43.386Z,3.21
2023-05-18T00:08:53.918Z,3.24
2023-05-18T00:09:04.412Z,3.23
2023-05-18T00:09:14.904Z,3.26
2023-05-18T00:09:25.432Z,3.29
2023-05-18T00:09:35.908Z,3.32
2023-05-18T00:09:46.469Z,3.32
2023-05-18T00:09:56.961Z,3.35
2023-05-18T00:10:07.448Z,3.40
2023-05-18T00:10:17.953Z,3.42
2023-05-18T00:10:28.515Z,3.43
2023-05-18T00:10:38.941Z,3.45
2023-05-18T00:10:49.447Z,3.43
2023-05-18T00:10:59.952Z,3.45
2023-05-18T00:11:10.462Z,3.45
2023-05-18T00:11:20.961Z,3.45
2023-05-18T00:11:31.473Z,3.45
2023-05-18T00:11:42.022Z,3.45
2023-05-18T00:11:52.480Z,3.47
2023-05-18T00:12:02.992Z,3.50
2023-05-18T00:12:13.486Z,3.50
2023-05-18T00:12:23.994Z,3.51
2023-05-18T00:12:34.514Z,3.51
2023-05-18T00:12:45.027Z,3.50
2023-05-18T00:12:55.518Z,3.52
2023-05-18T00:13:06.009Z,3.50
2023-05-18T00:13:16.524Z,3.48
2023-05-18T00:13:27.055Z,3.43
2023-05-18T00:13:37.540Z,3.40
2023-05-18T00:13:48.058Z,3.36
2023-05-18T00:13:58.544Z,3.33
2023-05-18T00:14:09.072Z,3.31
2023-05-18T00:14:19.549Z,3.29
2023-05-18T00:14:30.064Z,3.26
2023-05-18T00:14:40.560Z,3.26
2023-05-18T00:14:51.065Z,3.23
2023-05-18T00:15:01.585Z,3.23
2023-05-18T00:15:12.077Z,3.21
2023-05-18T00:15:22.596Z,3.21
2023-05-18T00:15:33.098Z,3.23
2023-05-18T00:15:43.597Z,3.21
2023-05-18T00:15:54.118Z,3.20
2023-05-18T00:16:04.626Z,3.18
2023-05-18T00:16:15.117Z,3.17
2023-05-18T00:16:25.632Z,3.14
2023-05-18T00:16:36.214Z,3.13
2023-05-18T00:16:46.644Z,3.14
2023-05-18T00:16:57.127Z,3.13
2023-05-18T00:17:07.640Z,3.11
2023-05-18T00:17:18.163Z,3.11
2023-05-18T00:17:28.689Z,3.10
2023-05-18T00:17:39.231Z,3.08
2023-05-18T00:17:49.687Z,3.10
2023-05-18T00:18:00.302Z,3.08
2023-05-18T00:18:10.791Z,3.08
2023-05-18T00:18:21.172Z,3.06
2023-05-18T00:18:31.699Z,3.06
2023-05-18T00:18:42.248Z,3.08
2023-05-18T00:18:52.725Z,3.05
2023-05-18T00:19:03.220Z,3.06
2023-05-18T00:19:13.749Z,3.06
2023-05-18T00:19:24.442Z,3.06
2023-05-18T00:19:34.711Z,3.08
2023-05-18T00:19:45.217Z,3.06
2023-05-18T00:19:55.733Z,3.06
2023-05-18T00:20:06.233Z,3.08
2023-05-18T00:20:16.747Z,3.11
2023-05-18T00:20:27.257Z,3.13
2023-05-18T00:20:37.759Z,3.13
2023-05-18T00:20:48.260Z,3.14
2023-05-18T00:20:58.824Z,3.14
2023-05-18T00:21:09.278Z,3.14
2023-05-18T00:21:19.771Z,3.13
2023-05-18T00:21:30.273Z,3.13
2023-05-18T00:21:40.779Z,3.13
2023-05-18T00:21:51.282Z,3.13
2023-05-18T00:22:01.798Z,3.11
2023-05-18T00:22:12.293Z,3.08
2023-05-18T00:22:22.808Z,3.08
2023-05-18T00:22:33.301Z,3.10
2023-05-18T00:22:43.820Z,3.06
2023-05-18T00:22:54.321Z,3.06
2023-05-18T00:23:04.821Z,3.06
2023-05-18T00:23:15.350Z,3.05
2023-05-18T00:23:25.821Z,3.05
2023-05-18T00:23:36.323Z,3.06
2023-05-18T00:23:46.837Z,3.06
2023-05-18T00:23:57.328Z,3.08
2023-05-18T00:24:07.859Z,3.08
2023-05-18T00:24:18.345Z,3.10
2023-05-18T00:24:28.870Z,3.08
2023-05-18T00:24:39.349Z,3.11
2023-05-18T00:24:49.850Z,3.08
2023-05-18T00:25:00.381Z,3.08
2023-05-18T00:25:10.876Z,3.10
2023-05-18T00:25:21.365Z,3.10
2023-05-18T00:25:32.010Z,3.10
2023-05-18T00:25:42.378Z,3.08
2023-05-18T00:25:52.887Z,3.10
2023-05-18T00:26:03.375Z,3.06
2023-05-18T00:26:13.883Z,3.08
2023-05-18T00:26:24.381Z,3.08
2023-05-18T00:26:34.895Z,3.08
2023-05-18T00:26:45.396Z,3.08
2023-05-18T00:26:55.919Z,3.08
2023-05-18T00:27:06.402Z,3.10
2023-05-18T00:27:16.923Z,3.08
2023-05-18T00:27:27.433Z,3.08
2023-05-18T00:27:37.915Z,3.08
2023-05-18T00:27:48.444Z,3.10
2023-05-18T00:27:58.928Z,3.13
2023-05-18T00:28:09.462Z,3.13
2023-05-18T00:28:19.947Z,3.11
2023-05-18T00:28:30.441Z,3.11
2023-05-18T00:28:41.071Z,3.11
2023-05-18T00:28:51.469Z,3.10
2023-05-18T00:29:01.973Z,3.11
2023-05-18T00:29:12.464Z,3.11
2023-05-18T00:29:23.004Z,3.11
2023-05-18T00:29:33.475Z,3.11
2023-05-18T00:29:43.993Z,3.11
2023-05-18T00:29:54.509Z,3.10
2023-05-18T00:30:04.998Z,3.08
2023-05-18T00:30:15.512Z,3.06
2023-05-18T00:30:26.010Z,3.06
2023-05-18T00:30:36.521Z,3.05
2023-05-18T00:30:47.030Z,3.05
2023-05-18T00:30:57.598Z,3.03
2023-05-18T00:31:08.081Z,3.03
2023-05-18T00:31:18.563Z,3.02
2023-05-18T00:31:29.072Z,3.00
2023-05-18T00:31:39.582Z,3.00
2023-05-18T00:31:50.138Z,3.05
2023-05-18T00:32:00.594Z,3.02
2023-05-18T00:32:11.070Z,3.02
2023-05-18T00:32:21.583Z,3.03
2023-05-18T00:32:32.120Z,3.03
2023-05-18T00:32:42.632Z,3.06
2023-05-18T00:32:53.120Z,3.08
2023-05-18T00:33:03.731Z,3.10
2023-05-18T00:33:14.107Z,3.13
2023-05-18T00:33:24.610Z,3.15
2023-05-18T00:33:35.133Z,3.15
2023-05-18T00:33:45.649Z,3.18
2023-05-18T00:33:56.133Z,3.18
2023-05-18T00:34:06.647Z,3.20
2023-05-18T00:34:17.170Z,3.21
2023-05-18T00:34:27.652Z,3.21
2023-05-18T00:34:38.164Z,3.23
2023-05-18T00:34:48.658Z,3.20
2023-05-18T00:34:59.166Z,3.21
2023-05-18T00:35:09.684Z,3.20
2023-05-18T00:35:20.181Z,3.20
2023-05-18T00:35:30.852Z,3.20
2023-05-18T00:35:41.193Z,3.18
2023-05-18T00:35:51.675Z,3.18
2023-05-18T00:36:02.192Z,3.18
2023-05-18T00:36:12.690Z,3.17
2023-05-18T00:36:23.198Z,3.17
2023-05-18T00:36:33.688Z,3.15
2023-05-18T00:36:44.200Z,3.14
2023-05-18T00:36:54.703Z,3.13
2023-05-18T00:37:05.205Z,3.11
2023-05-18T00:37:15.711Z,3.11
2023-05-18T00:37:26.215Z,3.10
2023-05-18T00:37:36.712Z,3.08
2023-05-18T00:37:47.237Z,3.08
2023-05-18T00:37:57.715Z,3.05
2023-05-18T00:38:08.228Z,3.06
2023-05-18T00:38:18.731Z,3.06
2023-05-18T00:38:29.230Z,3.06
2023-05-18T00:38:39.747Z,3.10
2023-05-18T00:38:50.308Z,3.10
2023-05-18T00:39:00.746Z,3.14
2023-05-18T00:39:11.253Z,3.15
2023-05-18T00:39:21.747Z,3.15
2023-05-18T00:39:32.269Z,3.18
2023-05-18T00:39:42.751Z,3.21
2023-05-18T00:39:53.260Z,3.20
2023-05-18T00:40:03.759Z,3.23
2023-05-18T00:40:14.271Z,3.21
2023-05-18T00:40:24.766Z,3.20
2023-05-18T00:40:35.273Z,3.18
2023-05-18T00:40:45.775Z,3.20
2023-05-18T00:40:56.283Z,3.18
2023-05-18T00:41:06.789Z,3.18
2023-05-18T00:41:17.300Z,3.15
2023-05-18T00:41:27.795Z,3.14
2023-05-18T00:41:38.310Z,3.14
2023-05-18T00:41:48.811Z,3.14
2023-05-18T00:41:59.320Z,3.11
2023-05-18T00:42:09.825Z,3.11
2023-05-18T00:42:20.323Z,3.10
2023-05-18T00:42:30.839Z,3.06
2023-05-18T00:42:41.343Z,3.06
2023-05-18T00:42:51.865Z,3.05
2023-05-18T00:43:02.344Z,3.03
2023-05-18T00:43:12.852Z,3.02
2023-05-18T00:43:23.352Z,2.99
2023-05-18T00:43:33.863Z,2.99
2023-05-18T00:43:44.358Z,2.97
2023-05-18T00:43:54.886Z,2.99
2023-05-18T00:44:05.362Z,2.97
2023-05-18T00:44:15.868Z,2.96
2023-05-18T00:44:26.371Z,2.96
2023-05-18T00:44:36.881Z,2.96
2023-05-18T00:44:47.376Z,2.97
2023-05-18T00:44:57.889Z,2.97
2023-05-18T00:45:08.393Z,2.96
2023-05-18T00:45:18.941Z,2.96
2023-05-18T00:45:29.557Z,2.99
2023-05-18T00:45:39.945Z,2.99
2023-05-18T00:45:50.443Z,3.00
2023-05-18T00:46:00.937Z,3.00
2023-05-18T00:46:11.450Z,2.99
2023-05-18T00:46:21.974Z,3.00
2023-05-18T00:46:32.483Z,2.99
2023-05-18T00:46:42.931Z,2.99
2023-05-18T00:46:53.428Z,2.99
2023-05-18T00:47:03.934Z,2.99
2023-05-18T00:47:14.445Z,2.99
2023-05-18T00:47:24.976Z,2.99
2023-05-18T00:47:35.492Z,2.97
2023-05-18T00:47:46.009Z,2.96
2023-05-18T00:47:56.517Z,2.97
2023-05-18T00:48:07.177Z,2.96
2023-05-18T00:48:17.502Z,2.97
2023-05-18T00:48:27.978Z,2.97
2023-05-18T00:48:38.479Z,2.95
2023-05-18T00:48:49.012Z,2.95
2023-05-18T00:48:59.487Z,2.95
2023-05-18T00:49:10.031Z,2.93
2023-05-18T00:49:20.512Z,2.93
2023-05-18T00:49:31.023Z,2.90
2023-05-18T00:49:41.518Z,2.90
2023-05-18T00:49:52.010Z,2.89
2023-05-18T00:50:02.502Z,2.87
2023-05-18T00:50:13.008Z,2.85
2023-05-18T00:50:23.522Z,2.84
2023-05-18T00:50:34.020Z,2.84
2023-05-18T00:50:44.529Z,2.81
2023-05-18T00:50:55.025Z,2.81
2023-05-18T00:51:05.534Z,2.79
2023-05-18T00:51:16.120Z,2.77
2023-05-18T00:51:26.590Z,2.75
2023-05-18T00:51:37.039Z,2.77
2023-05-18T00:51:47.543Z,2.77
2023-05-18T00:51:58.050Z,2.75
2023-05-18T00:52:08.563Z,2.74
2023-05-18T00:52:19.559Z,2.74
2023-05-18T00:52:30.079Z,2.72
2023-05-18T00:52:40.581Z,2.75
2023-05-18T00:52:51.568Z,2.75
2023-05-18T00:53:02.071Z,2.74
2023-05-18T00:53:12.574Z,2.77
2023-05-18T00:53:23.076Z,2.77
2023-05-18T00:53:33.597Z,2.77
2023-05-18T00:53:44.352Z,2.77
2023-05-18T00:53:54.583Z,2.78
2023-05-18T00:54:05.093Z,2.77
2023-05-18T00:54:15.598Z,2.77
2023-05-18T00:54:26.099Z,2.77
2023-05-18T00:54:36.628Z,2.74
2023-05-18T00:54:47.116Z,2.75
2023-05-18T00:54:57.623Z,2.75
2023-05-18T00:55:08.118Z,2.78
2023-05-18T00:55:18.619Z,2.78
2023-05-18T00:55:29.304Z,2.79
2023-05-18T00:55:39.836Z,2.78
2023-05-18T00:55:50.128Z,2.81
2023-05-18T00:56:00.646Z,2.81
2023-05-18T00:56:11.637Z,2.81
2023-05-18T00:56:22.145Z,2.82
2023-05-18T00:56:32.647Z,2.82
2023-05-18T00:56:43.149Z,2.81
2023-05-18T00:56:53.656Z,2.81
2023-05-18T00:57:04.158Z,2.81
2023-05-18T00:57:14.661Z,2.81
2023-05-18T00:57:25.164Z,2.79
2023-05-18T00:57:35.665Z,2.77
2023-05-18T00:57:46.171Z,2.77
2023-05-18T00:57:56.741Z,2.75
2023-05-18T00:58:07.182Z,2.77
2023-05-18T00:58:17.680Z,2.74
2023-05-18T00:58:28.190Z,2.72
2023-05-18T00:58:38.695Z,2.71
2023-05-18T00:58:49.190Z,2.71
2023-05-18T00:58:59.704Z,2.67
2023-05-18T00:59:10.226Z,2.66
2023-05-18T00:59:20.714Z,2.64
2023-05-18T00:59:31.212Z,2.64
2023-05-18T00:59:41.731Z,2.61
2023-05-18T00:59:52.223Z,2.63
2023-05-18T01:00:03.330Z,2.61
2023-05-18T01:00:13.247Z,2.63
2023-05-18T01:00:23.777Z,2.61
2023-05-18T01:00:34.251Z,2.64
2023-05-18T01:00:44.774Z,2.64
2023-05-18T01:00:55.310Z,2.63
2023-05-18T01:01:05.794Z,2.64
2023-05-18T01:01:16.336Z,2.64
2023-05-18T01:01:26.832Z,2.64
2023-05-18T01:01:37.308Z,2.67
2023-05-18T01:01:47.784Z,2.67
2023-05-18T01:01:58.373Z,2.66
2023-05-18T01:02:08.864Z,2.67
2023-05-18T01:02:19.335Z,2.71
2023-05-18T01:02:29.898Z,2.67
2023-05-18T01:02:40.354Z,2.67
2023-05-18T01:02:50.963Z,2.69
2023-05-18T01:03:01.477Z,2.69
2023-05-18T01:03:11.981Z,2.69
2023-05-18T01:03:22.333Z,2.66
2023-05-18T01:03:32.864Z,2.67
2023-05-18T01:03:43.334Z,2.67
2023-05-18T01:03:53.856Z,2.66
2023-05-18T01:04:04.401Z,2.64
2023-05-18T01:04:14.859Z,2.64
2023-05-18T01:04:25.370Z,2.64
2023-05-18T01:04:35.870Z,2.63
2023-05-18T01:04:46.371Z,2.61
2023-05-18T01:04:56.883Z,2.59
2023-05-18T01:05:07.383Z,2.59
2023-05-18T01:05:17.898Z,2.57
2023-05-18T01:05:28.673Z,2.57
2023-05-18T01:05:38.910Z,2.54
2023-05-18T01:05:49.396Z,2.54
2023-05-18T01:05:59.912Z,2.54
2023-05-18T01:06:10.410Z,2.53
2023-05-18T01:06:20.930Z,2.53
2023-05-18T01:06:31.417Z,2.52
2023-05-18T01:06:41.942Z,2.53
2023-05-18T01:06:52.429Z,2.49
2023-05-18T01:07:02.935Z,2.52
2023-05-18T01:07:13.452Z,2.49
2023-05-18T01:07:23.944Z,2.49
2023-05-18T01:07:34.459Z,2.48
2023-05-18T01:07:44.951Z,2.46
2023-05-18T01:07:55.453Z,2.49
2023-05-18T01:08:05.957Z,2.46
2023-05-18T01:08:16.465Z,2.46
2023-05-18T01:08:26.971Z,2.43
2023-05-18T01:08:37.470Z,2.43
2023-05-18T01:08:47.979Z,2.43
2023-05-18T01:08:58.486Z,2.41
2023-05-18T01:09:09.009Z,2.41
2023-05-18T01:09:19.487Z,2.42
2023-05-18T01:09:30.012Z,2.43
2023-05-18T01:09:40.499Z,2.42
2023-05-18T01:09:51.013Z,2.43
2023-05-18T01:10:01.561Z,2.42
2023-05-18T01:10:12.021Z,2.45
2023-05-18T01:10:22.573Z,2.42
2023-05-18T01:10:33.031Z,2.43
2023-05-18T01:10:43.535Z,2.43
2023-05-18T01:10:54.065Z,2.43
2023-05-18T01:11:04.594Z,2.43
2023-05-18T01:11:15.123Z,2.43
2023-05-18T01:11:25.624Z,2.45
2023-05-18T01:11:36.130Z,2.43
2023-05-18T01:11:46.578Z,2.46
2023-05-18T01:11:57.092Z,2.45
2023-05-18T01:12:07.609Z,2.43
2023-05-18T01:12:18.118Z,2.46
2023-05-18T01:12:28.596Z,2.45
2023-05-18T01:12:39.103Z,2.46
2023-05-18T01:12:49.603Z,2.46
2023-05-18T01:13:00.165Z,2.46
2023-05-18T01:13:10.619Z,2.46
2023-05-18T01:13:21.122Z,2.43
2023-05-18T01:13:31.630Z,2.46
2023-05-18T01:13:42.130Z,2.46
2023-05-18T01:13:52.652Z,2.45
2023-05-18T01:14:03.150Z,2.45
2023-05-18T01:14:13.649Z,2.43
2023-05-18T01:14:24.161Z,2.43
2023-05-18T01:14:34.658Z,2.43
2023-05-18T01:14:45.163Z,2.42
2023-05-18T01:14:55.667Z,2.41
2023-05-18T01:15:06.182Z,2.42
2023-05-18T01:15:16.719Z,2.41
2023-05-18T01:15:27.216Z,2.39
2023-05-18T01:15:37.691Z,2.38
2023-05-18T01:15:48.197Z,2.38
2023-05-18T01:15:58.692Z,2.36
2023-05-18T01:16:09.207Z,2.36
2023-05-18T01:16:19.706Z,2.35
2023-05-18T01:16:30.225Z,2.36
2023-05-18T01:16:40.927Z,2.34
2023-05-18T01:16:51.258Z,2.34
2023-05-18T01:17:01.776Z,2.34
2023-05-18T01:17:12.418Z,2.34
2023-05-18T01:17:22.817Z,2.30
2023-05-18T01:17:33.260Z,2.28
2023-05-18T01:17:43.804Z,2.30
2023-05-18T01:17:54.298Z,2.28
2023-05-18T01:18:05.081Z,2.27
2023-05-18T01:18:15.320Z,2.27
2023-05-18T01:18:25.759Z,2.27
2023-05-18T01:18:36.274Z,2.28
2023-05-18T01:18:46.786Z,2.24
2023-05-18T01:18:57.315Z,2.27
2023-05-18T01:19:07.840Z,2.24
2023-05-18T01:19:18.318Z,2.25
2023-05-18T01:19:28.774Z,2.24
2023-05-18T01:19:39.285Z,2.25
2023-05-18T01:19:49.801Z,2.27
2023-05-18T01:20:00.289Z,2.27
2023-05-18T01:20:10.798Z,2.27
2023-05-18T01:20:21.307Z,2.28
2023-05-18T01:20:31.814Z,2.28
2023-05-18T01:20:42.317Z,2.28
2023-05-18T01:20:52.817Z,2.30
2023-05-18T01:21:03.318Z,2.28
2023-05-18T01:21:13.821Z,2.30
2023-05-18T01:21:24.333Z,2.30
2023-05-18T01:21:34.835Z,2.30
2023-05-18T01:21:45.367Z,2.30
2023-05-18T01:21:55.829Z,2.31
2023-05-18T01:22:06.348Z,2.35
2023-05-18T01:22:16.847Z,2.35
2023-05-18T01:22:27.381Z,2.34
2023-05-18T01:22:37.861Z,2.34
2023-05-18T01:22:48.356Z,2.31
2023-05-18T01:22:58.854Z,2.31
2023-05-18T01:23:09.363Z,2.31
2023-05-18T01:23:19.857Z,2.30
2023-05-18T01:23:30.366Z,2.28
2023-05-18T01:23:40.872Z,2.30
2023-05-18T01:23:51.371Z,2.28
2023-05-18T01:24:01.871Z,2.27
2023-05-18T01:24:12.390Z,2.27
2023-05-18T01:24:22.889Z,2.24
2023-05-18T01:24:33.406Z,2.25
2023-05-18T01:24:43.893Z,2.24
2023-05-18T01:24:54.397Z,2.25
2023-05-18T01:25:04.927Z,2.23
2023-05-18T01:25:15.409Z,2.25
2023-05-18T01:25:25.913Z,2.25
2023-05-18T01:25:36.415Z,2.23
2023-05-18T01:25:46.935Z,2.24
2023-05-18T01:25:57.422Z,2.24
2023-05-18T01:26:07.924Z,2.25
2023-05-18T01:26:18.424Z,2.28
2023-05-18T01:26:28.939Z,2.28
2023-05-18T01:26:39.933Z,2.27
2023-05-18T01:26:50.451Z,2.27
2023-05-18T01:27:01.013Z,2.27
2023-05-18T01:27:11.442Z,2.30
2023-05-18T01:27:21.954Z,2.30
2023-05-18T01:27:32.453Z,2.31
2023-05-18T01:27:42.958Z,2.34
2023-05-18T01:27:53.469Z,2.35
2023-05-18T01:28:03.993Z,2.35
2023-05-18T01:28:14.470Z,2.35
2023-05-18T01:28:24.980Z,2.35
2023-05-18T01:28:35.475Z,2.36
2023-05-18T01:28:45.976Z,2.34
2023-05-18T01:28:56.481Z,2.34
2023-05-18T01:29:06.995Z,2.35
2023-05-18T01:29:17.495Z,2.31
2023-05-18T01:29:27.991Z,2.31
2023-05-18T01:29:38.508Z,2.31
2023-05-18T01:29:48.993Z,2.28
2023-05-18T01:29:59.506Z,2.28
2023-05-18T01:30:10.000Z,2.30
2023-05-18T01:30:20.548Z,2.27
2023-05-18T01:30:31.018Z,2.27
2023-05-18T01:30:41.566Z,2.27
2023-05-18T01:30:52.042Z,2.24
2023-05-18T01:31:02.541Z,2.24
2023-05-18T01:31:13.121Z,2.23
2023-05-18T01:31:23.622Z,2.24
2023-05-18T01:31:34.124Z,2.25
2023-05-18T01:31:44.544Z,2.23
2023-05-18T01:31:55.051Z,2.24
2023-05-18T01:32:05.541Z,2.24
2023-05-18T01:32:16.043Z,2.24
2023-05-18T01:32:26.606Z,2.27
2023-05-18T01:32:37.083Z,2.27
2023-05-18T01:32:47.664Z,2.27
2023-05-18T01:32:58.103Z,2.30
2023-05-18T01:33:08.666Z,2.31
2023-05-18T01:33:19.064Z,2.31
2023-05-18T01:33:29.571Z,2.31
2023-05-18T01:33:40.079Z,2.28
2023-05-18T01:33:50.579Z,2.28
2023-05-18T01:34:01.086Z,2.30
2023-05-18T01:34:11.578Z,2.30
2023-05-18T01:34:22.085Z,2.30
2023-05-18T01:34:32.589Z,2.27
2023-05-18T01:34:43.090Z,2.27
2023-05-18T01:34:53.620Z,2.27
2023-05-18T01:35:04.104Z,2.27
2023-05-18T01:35:14.631Z,2.27
2023-05-18T01:35:25.110Z,2.27
2023-05-18T01:35:35.625Z,2.27
2023-05-18T01:35:46.123Z,2.28
2023-05-18T01:35:56.651Z,2.28
2023-05-18T01:36:07.128Z,2.27
2023-05-18T01:36:17.636Z,2.27
2023-05-18T01:36:28.141Z,2.27
2023-05-18T01:36:38.688Z,2.24
2023-05-18T01:36:49.153Z,2.24
2023-05-18T01:36:59.658Z,2.21
2023-05-18T01:37:10.157Z,2.21
2023-05-18T01:37:20.745Z,2.21
2023-05-18T01:37:31.168Z,2.20
2023-05-18T01:37:41.680Z,2.17
2023-05-18T01:37:52.165Z,2.17
2023-05-18T01:38:02.685Z,2.16
2023-05-18T01:38:13.187Z,2.16
2023-05-18T01:38:23.703Z,2.16
2023-05-18T01:38:34.192Z,2.12
2023-05-18T01:38:44.692Z,2.14
2023-05-18T01:38:55.222Z,2.10
2023-05-18T01:39:05.722Z,2.07
2023-05-18T01:39:16.227Z,2.07
2023-05-18T01:39:26.716Z,2.09
2023-05-18T01:39:37.220Z,2.06
2023-05-18T01:39:47.726Z,2.07
2023-05-18T01:39:58.222Z,2.06
2023-05-18T01:40:08.738Z,2.06
2023-05-18T01:40:19.240Z,2.03
2023-05-18T01:40:29.744Z,2.03
2023-05-18T01:40:40.250Z,2.05
2023-05-18T01:40:51.253Z,2.05
2023-05-18T01:41:01.746Z,2.05
2023-05-18T01:41:12.265Z,2.03
2023-05-18T01:41:22.769Z,2.03
2023-05-18T01:41:33.256Z,2.05
2023-05-18T01:41:43.765Z,2.03
2023-05-18T01:41:54.287Z,2.06
2023-05-18T01:42:04.776Z,2.03
2023-05-18T01:42:15.304Z,2.03
2023-05-18T01:42:25.800Z,2.03
2023-05-18T01:42:36.292Z,2.02
2023-05-18T01:42:46.791Z,2.02
2023-05-18T01:42:57.303Z,2.03
2023-05-18T01:43:07.821Z,2.02
2023-05-18T01:43:18.297Z,2.03
2023-05-18T01:43:28.842Z,2.02
2023-05-18T01:43:39.305Z,2.00
2023-05-18T01:43:49.810Z,2.02
2023-05-18T01:44:00.308Z,2.00
2023-05-18T01:44:10.829Z,2.00
2023-05-18T01:44:21.315Z,1.99
2023-05-18T01:44:31.833Z,2.02
2023-05-18T01:44:42.322Z,2.00
2023-05-18T01:44:52.820Z,2.02
2023-05-18T01:45:03.323Z,2.00
2023-05-18T01:45:13.836Z,2.02
2023-05-18T01:45:24.339Z,1.99
2023-05-18T01:45:34.836Z,1.99
2023-05-18T01:45:45.333Z,1.99
2023-05-18T01:45:55.885Z,1.99
2023-05-18T01:46:06.356Z,1.99
2023-05-18T01:46:16.909Z,2.00
2023-05-18T01:46:27.384Z,2.00
2023-05-18T01:46:37.910Z,2.00
2023-05-18T01:46:48.452Z,1.98
2023-05-18T01:46:58.847Z,1.98
2023-05-18T01:47:09.357Z,1.99
2023-05-18T01:47:19.865Z,1.98
2023-05-18T01:47:30.376Z,1.95
2023-05-18T01:47:40.913Z,1.98
2023-05-18T01:47:51.424Z,1.95
2023-05-18T01:48:01.908Z,1.93
2023-05-18T01:48:12.973Z,1.91
2023-05-18T01:48:23.388Z,1.90
2023-05-18T01:48:33.874Z,1.90
2023-05-18T01:48:44.386Z,1.88
2023-05-18T01:48:54.890Z,1.87
2023-05-18T01:49:05.405Z,1.87
2023-05-18T01:49:15.884Z,1.87
2023-05-18T01:49:26.390Z,1.84
2023-05-18T01:49:37.414Z,1.83
2023-05-18T01:49:47.889Z,1.83
2023-05-18T01:49:58.410Z,1.83
2023-05-18T01:50:08.893Z,1.83
2023-05-18T01:50:19.898Z,1.83
2023-05-18T01:50:30.897Z,1.81
2023-05-18T01:50:41.905Z,1.81
2023-05-18T01:50:52.398Z,1.81
2023-05-18T01:51:02.901Z,1.77
2023-05-18T01:51:13.402Z,1.80
2023-05-18T01:51:23.909Z,1.79
2023-05-18T01:51:34.395Z,1.76
2023-05-18T01:51:44.920Z,1.76
2023-05-18T01:51:55.406Z,1.73
2023-05-18T01:52:05.930Z,1.76
2023-05-18T01:52:16.416Z,1.76
2023-05-18T01:52:26.924Z,1.76
2023-05-18T01:52:37.428Z,1.76
2023-05-18T01:52:47.921Z,1.76
2023-05-18T01:52:58.419Z,1.76
2023-05-18T01:53:08.929Z,1.77
2023-05-18T01:53:19.429Z,1.76
2023-05-18T01:53:29.954Z,1.76
2023-05-18T01:53:40.432Z,1.77
2023-05-18T01:53:50.938Z,1.76
2023-05-18T01:54:01.465Z,1.77
2023-05-18T01:54:11.944Z,1.73
2023-05-18T01:54:22.448Z,1.76
2023-05-18T01:54:32.967Z,1.77
2023-05-18T01:54:43.464Z,1.76
2023-05-18T01:54:53.963Z,1.77
2023-05-18T01:55:04.458Z,1.73
2023-05-18T01:55:14.983Z,1.76
2023-05-18T01:55:25.464Z,1.77
2023-05-18T01:55:35.980Z,1.77
2023-05-18T01:55:46.468Z,1.77
2023-05-18T01:55:56.989Z,1.77
2023-05-18T01:56:07.475Z,1.76
2023-05-18T01:56:17.994Z,1.76
2023-05-18T01:56:28.491Z,1.76
2023-05-18T01:56:39.002Z,1.76
2023-05-18T01:56:50.001Z,1.73
2023-05-18T01:57:01.305Z,1.76
2023-05-18T01:57:11.008Z,1.77
2023-05-18T01:57:21.517Z,1.76
2023-05-18T01:57:32.018Z,1.76
2023-05-18T01:57:42.517Z,1.77
2023-05-18T01:57:53.011Z,1.77
2023-05-18T01:58:03.512Z,1.79
2023-05-18T01:58:14.087Z,1.77
2023-05-18T01:58:24.535Z,1.77
2023-05-18T01:58:35.028Z,1.76
2023-05-18T01:58:45.532Z,1.79
2023-05-18T01:58:56.077Z,1.79
2023-05-18T01:59:06.549Z,1.80
2023-05-18T01:59:17.053Z,1.80
2023-05-18T01:59:27.550Z,1.79
2023-05-18T01:59:38.060Z,1.80
2023-05-18T01:59:48.624Z,1.79
2023-05-18T01:59:59.054Z,1.79
2023-05-18T02:00:09.558Z,1.79
2023-05-18T02:00:20.067Z,1.76
2023-05-18T02:00:30.558Z,1.76
2023-05-18T02:00:41.059Z,1.76
2023-05-18T02:00:51.568Z,1.77
2023-05-18T02:01:02.076Z,1.76
2023-05-18T02:01:12.569Z,1.76
2023-05-18T02:01:23.337Z,1.76
2023-05-18T02:01:33.629Z,1.76
2023-05-18T02:01:44.108Z,1.73
2023-05-18T02:01:59.147Z,1.73
2023-05-18T02:02:06.139Z,1.73
2023-05-18T02:02:15.686Z,1.73
2023-05-18T02:02:26.202Z,1.73
2023-05-18T02:02:36.668Z,1.70
2023-05-18T02:02:47.180Z,1.73
2023-05-18T02:02:57.663Z,1.72
2023-05-18T02:03:08.166Z,1.73
2023-05-18T02:03:18.713Z,1.72
2023-05-18T02:03:29.173Z,1.72
2023-05-18T02:03:39.676Z,1.72
2023-05-18T02:03:50.194Z,1.73
2023-05-18T02:04:00.810Z,1.72
2023-05-18T02:04:11.184Z,1.70
2023-05-18T02:04:21.619Z,1.72
2023-05-18T02:04:32.123Z,1.73
2023-05-18T02:04:42.658Z,1.70
2023-05-18T02:04:53.139Z,1.72
2023-05-18T02:05:03.647Z,1.72
2023-05-18T02:05:14.157Z,1.70
2023-05-18T02:05:24.648Z,1.69
2023-05-18T02:05:35.152Z,1.70
2023-05-18T02:05:45.655Z,1.70
2023-05-18T02:05:56.171Z,1.69
2023-05-18T02:06:06.664Z,1.69
2023-05-18T02:06:17.179Z,1.69
2023-05-18T02:06:27.676Z,1.68
2023-05-18T02:06:38.182Z,1.68
2023-05-18T02:06:48.733Z,1.66
2023-05-18T02:06:59.187Z,1.66
2023-05-18T02:07:09.696Z,1.68
2023-05-18T02:07:20.201Z,1.66
2023-05-18T02:07:30.702Z,1.68
2023-05-18T02:07:41.211Z,1.66
2023-05-18T02:07:51.739Z,1.65
2023-05-18T02:08:02.218Z,1.65
2023-05-18T02:08:12.728Z,1.66
2023-05-18T02:08:23.231Z,1.66
2023-05-18T02:08:33.719Z,1.68
2023-05-18T02:08:44.269Z,1.69
2023-05-18T02:08:54.768Z,1.69
2023-05-18T02:09:05.239Z,1.70
2023-05-18T02:09:15.737Z,1.69
2023-05-18T02:09:26.288Z,1.70
2023-05-18T02:09:36.736Z,1.70
2023-05-18T02:09:47.253Z,1.70
2023-05-18T02:09:57.748Z,1.70
2023-05-18T02:10:08.250Z,1.70
2023-05-18T02:10:18.782Z,1.70
2023-05-18T02:10:29.252Z,1.69
2023-05-18T02:10:39.758Z,1.69
2023-05-18T02:10:50.260Z,1.69
2023-05-18T02:11:00.759Z,1.69
2023-05-18T02:11:11.262Z,1.69
2023-05-18T02:11:21.768Z,1.66
2023-05-18T02:11:32.264Z,1.65
2023-05-18T02:11:42.801Z,1.66
2023-05-18T02:11:53.275Z,1.65
2023-05-18T02:12:03.781Z,1.63
2023-05-18T02:12:14.287Z,1.63
2023-05-18T02:12:24.784Z,1.62
2023-05-18T02:12:35.301Z,1.63
2023-05-18T02:12:45.788Z,1.60
2023-05-18T02:12:56.291Z,1.60
2023-05-18T02:13:06.824Z,1.59
2023-05-18T02:13:17.318Z,1.59
2023-05-18T02:13:27.833Z,1.60
2023-05-18T02:13:38.339Z,1.59
2023-05-18T02:13:48.808Z,1.59
2023-05-18T02:13:59.315Z,1.59
2023-05-18T02:14:09.832Z,1.58
2023-05-18T02:14:20.379Z,1.59
2023-05-18T02:14:30.828Z,1.59
2023-05-18T02:14:41.328Z,1.59
2023-05-18T02:14:51.851Z,1.59
2023-05-18T02:15:02.378Z,1.58
2023-05-18T02:15:12.849Z,1.59
2023-05-18T02:15:23.365Z,1.55
2023-05-18T02:15:33.857Z,1.55
2023-05-18T02:15:44.355Z,1.55
2023-05-18T02:15:54.928Z,1.58
2023-05-18T02:16:05.417Z,1.55
2023-05-18T02:16:15.882Z,1.58
2023-05-18T02:16:26.420Z,1.55
2023-05-18T02:16:36.921Z,1.55
2023-05-18T02:16:47.647Z,1.54
2023-05-18T02:16:57.868Z,1.55
2023-05-18T02:17:08.404Z,1.55
2023-05-18T02:17:18.882Z,1.54
2023-05-18T02:17:29.438Z,1.55
2023-05-18T02:17:40.011Z,1.54
2023-05-18T02:17:50.436Z,1.52
2023-05-18T02:18:01.420Z,1.54
2023-05-18T02:18:11.936Z,1.52
2023-05-18T02:18:22.462Z,1.52
2023-05-18T02:18:32.900Z,1.51
2023-05-18T02:18:43.436Z,1.52
2023-05-18T02:18:53.932Z,1.52
2023-05-18T02:19:04.924Z,1.51
2023-05-18T02:19:15.104Z,1.50
2023-05-18T02:19:25.665Z,1.48
2023-05-18T02:19:36.418Z,1.48
2023-05-18T02:19:47.410Z,1.47
2023-05-18T02:19:58.432Z,1.45